TJIG/SIG METAR and TAF weather

Enter ICAO airport designator
Station Type Date Time Source
TJIG METAR 2019/10/15 17:45 UTC NOAA

TJIG 151745Z 09011KT 10SM SCT030 SCT050 31/23 A2993


Station Type Date Time Source
TJIG Decoded METAR 2019/10/15 17:45 UTC NOAA

Station name not available
Oct 15, 2019 - 01:45 PM EDT / 2019.10.15 1745 UTC
Wind: from the E (090 degrees) at 13 MPH (11 KT):0
Visibility: 10 mile(s):0
Sky conditions: partly cloudy
Temperature: 87 F (31 C)
Heat index: 93.9 F (34.4 C):1
Dew Point: 73 F (23 C)
Relative Humidity: 62%
Pressure (altimeter): 29.93 in. Hg (1013 hPa)
ob: TJIG 151745Z 09011KT 10SM SCT030 SCT050 31/23 A2993
cycle: 18

Station Type Date Time Source
TJIG TAF UTC NOAA

Error!

Example: see airport list